sensor_id;sensor_type;location;lat;lon;timestamp;P1;durP1;ratioP1;P2;durP2;ratioP2
16579;SDS011;8402;51.466;6.806;2023-04-16T00:02:30;14.80;;;6.80;;
16579;SDS011;8402;51.466;6.806;2023-04-16T00:05:00;18.00;;;6.77;;
16579;SDS011;8402;51.466;6.806;2023-04-16T00:07:31;17.77;;;6.40;;
16579;SDS011;8402;51.466;6.806;2023-04-16T00:10:00;15.70;;;6.20;;
16579;SDS011;8402;51.466;6.806;2023-04-16T00:12:33;16.20;;;6.60;;
16579;SDS011;8402;51.466;6.806;2023-04-16T00:15:03;13.90;;;6.30;;
16579;SDS011;8402;51.466;6.806;2023-04-16T00:17:34;15.80;;;6.30;;
16579;SDS011;8402;51.466;6.806;2023-04-16T00:20:05;16.60;;;6.60;;
16579;SDS011;8402;51.466;6.806;2023-04-16T00:22:36;17.13;;;6.87;;
16579;SDS011;8402;51.466;6.806;2023-04-16T00:25:08;17.67;;;7.30;;
16579;SDS011;8402;51.466;6.806;2023-04-16T00:27:40;16.87;;;6.83;;
16579;SDS011;8402;51.466;6.806;2023-04-16T00:30:11;15.97;;;6.83;;
16579;SDS011;8402;51.466;6.806;2023-04-16T00:32:41;14.63;;;7.30;;
16579;SDS011;8402;51.466;6.806;2023-04-16T00:35:11;15.20;;;7.17;;
16579;SDS011;8402;51.466;6.806;2023-04-16T00:37:41;19.07;;;7.37;;
16579;SDS011;8402;51.466;6.806;2023-04-16T00:40:11;15.53;;;7.03;;
16579;SDS011;8402;51.466;6.806;2023-04-16T00:42:44;18.77;;;7.03;;
16579;SDS011;8402;51.466;6.806;2023-04-16T00:45:14;12.30;;;6.33;;
16579;SDS011;8402;51.466;6.806;2023-04-16T00:47:44;15.77;;;6.63;;
16579;SDS011;8402;51.466;6.806;2023-04-16T00:50:14;18.43;;;7.27;;
16579;SDS011;8402;51.466;6.806;2023-04-16T00:52:45;14.37;;;6.40;;
16579;SDS011;8402;51.466;6.806;2023-04-16T00:55:15;18.77;;;7.10;;
16579;SDS011;8402;51.466;6.806;2023-04-16T00:57:49;12.33;;;6.20;;
16579;SDS011;8402;51.466;6.806;2023-04-16T01:00:19;17.00;;;6.80;;
16579;SDS011;8402;51.466;6.806;2023-04-16T01:02:50;24.77;;;6.93;;
16579;SDS011;8402;51.466;6.806;2023-04-16T01:05:20;18.10;;;7.33;;
16579;SDS011;8402;51.466;6.806;2023-04-16T01:07:50;19.67;;;7.20;;
16579;SDS011;8402;51.466;6.806;2023-04-16T01:10:21;21.03;;;7.33;;
16579;SDS011;8402;51.466;6.806;2023-04-16T01:12:53;19.27;;;8.07;;
16579;SDS011;8402;51.466;6.806;2023-04-16T01:15:23;19.20;;;7.07;;
16579;SDS011;8402;51.466;6.806;2023-04-16T01:17:53;18.23;;;7.37;;
16579;SDS011;8402;51.466;6.806;2023-04-16T01:20:24;19.03;;;8.20;;
16579;SDS011;8402;51.466;6.806;2023-04-16T01:22:56;19.10;;;6.90;;
16579;SDS011;8402;51.466;6.806;2023-04-16T01:25:26;17.93;;;7.23;;
16579;SDS011;8402;51.466;6.806;2023-04-16T01:27:56;24.13;;;7.93;;
16579;SDS011;8402;51.466;6.806;2023-04-16T01:30:26;24.97;;;8.17;;
16579;SDS011;8402;51.466;6.806;2023-04-16T01:32:56;20.53;;;7.77;;
16579;SDS011;8402;51.466;6.806;2023-04-16T01:35:26;20.37;;;7.83;;
16579;SDS011;8402;51.466;6.806;2023-04-16T01:37:59;20.17;;;7.90;;
16579;SDS011;8402;51.466;6.806;2023-04-16T01:40:29;15.57;;;7.77;;
16579;SDS011;8402;51.466;6.806;2023-04-16T01:42:59;23.20;;;9.33;;
16579;SDS011;8402;51.466;6.806;2023-04-16T01:45:29;23.20;;;9.20;;
16579;SDS011;8402;51.466;6.806;2023-04-16T01:48:00;27.77;;;8.17;;
16579;SDS011;8402;51.466;6.806;2023-04-16T01:50:31;17.23;;;8.17;;
16579;SDS011;8402;51.466;6.806;2023-04-16T01:53:04;26.90;;;8.40;;
16579;SDS011;8402;51.466;6.806;2023-04-16T01:55:35;28.73;;;9.27;;
16579;SDS011;8402;51.466;6.806;2023-04-16T01:58:05;18.70;;;8.80;;
16579;SDS011;8402;51.466;6.806;2023-04-16T02:00:36;22.30;;;8.93;;
16579;SDS011;8402;51.466;6.806;2023-04-16T02:03:07;20.57;;;8.57;;
16579;SDS011;8402;51.466;6.806;2023-04-16T02:05:38;25.70;;;9.33;;
16579;SDS011;8402;51.466;6.806;2023-04-16T02:08:11;24.97;;;9.13;;
16579;SDS011;8402;51.466;6.806;2023-04-16T02:10:41;26.57;;;9.67;;
16579;SDS011;8402;51.466;6.806;2023-04-16T02:13:13;24.70;;;9.33;;
16579;SDS011;8402;51.466;6.806;2023-04-16T02:15:44;24.63;;;9.60;;
16579;SDS011;8402;51.466;6.806;2023-04-16T02:18:15;30.73;;;9.10;;
16579;SDS011;8402;51.466;6.806;2023-04-16T02:20:45;28.30;;;9.90;;
16579;SDS011;8402;51.466;6.806;2023-04-16T02:23:21;25.43;;;8.90;;
16579;SDS011;8402;51.466;6.806;2023-04-16T02:25:50;23.80;;;9.83;;
16579;SDS011;8402;51.466;6.806;2023-04-16T02:28:20;25.53;;;9.20;;
16579;SDS011;8402;51.466;6.806;2023-04-16T02:30:50;23.90;;;9.20;;
16579;SDS011;8402;51.466;6.806;2023-04-16T02:33:21;23.47;;;9.37;;
16579;SDS011;8402;51.466;6.806;2023-04-16T02:35:51;20.70;;;9.13;;
16579;SDS011;8402;51.466;6.806;2023-04-16T02:38:24;27.27;;;9.60;;
16579;SDS011;8402;51.466;6.806;2023-04-16T02:40:54;25.27;;;9.70;;
16579;SDS011;8402;51.466;6.806;2023-04-16T02:43:24;25.27;;;10.50;;
16579;SDS011;8402;51.466;6.806;2023-04-16T02:45:54;27.60;;;9.53;;
16579;SDS011;8402;51.466;6.806;2023-04-16T02:48:25;21.63;;;9.80;;
16579;SDS011;8402;51.466;6.806;2023-04-16T02:50:55;28.67;;;10.50;;
16579;SDS011;8402;51.466;6.806;2023-04-16T02:53:27;26.77;;;9.77;;
16579;SDS011;8402;51.466;6.806;2023-04-16T02:55:58;20.30;;;10.17;;
16579;SDS011;8402;51.466;6.806;2023-04-16T02:58:28;25.37;;;10.13;;
16579;SDS011;8402;51.466;6.806;2023-04-16T03:00:59;20.77;;;10.13;;
16579;SDS011;8402;51.466;6.806;2023-04-16T03:03:29;31.00;;;11.03;;
16579;SDS011;8402;51.466;6.806;2023-04-16T03:05:59;28.30;;;11.43;;
16579;SDS011;8402;51.466;6.806;2023-04-16T03:08:32;28.23;;;11.00;;
16579;SDS011;8402;51.466;6.806;2023-04-16T03:11:02;26.40;;;11.00;;
16579;SDS011;8402;51.466;6.806;2023-04-16T03:13:33;32.03;;;12.30;;
16579;SDS011;8402;51.466;6.806;2023-04-16T03:16:03;25.73;;;10.63;;
16579;SDS011;8402;51.466;6.806;2023-04-16T03:18:33;25.03;;;11.23;;
16579;SDS011;8402;51.466;6.806;2023-04-16T03:21:03;29.03;;;11.57;;
16579;SDS011;8402;51.466;6.806;2023-04-16T03:23:36;30.73;;;12.20;;
16579;SDS011;8402;51.466;6.806;2023-04-16T03:26:06;36.93;;;11.90;;
16579;SDS011;8402;51.466;6.806;2023-04-16T03:28:36;31.70;;;12.67;;
16579;SDS011;8402;51.466;6.806;2023-04-16T03:31:06;29.93;;;12.20;;
16579;SDS011;8402;51.466;6.806;2023-04-16T03:33:36;27.33;;;12.33;;
16579;SDS011;8402;51.466;6.806;2023-04-16T03:36:07;30.10;;;11.70;;
16579;SDS011;8402;51.466;6.806;2023-04-16T03:38:41;31.90;;;12.10;;
16579;SDS011;8402;51.466;6.806;2023-04-16T03:41:10;27.20;;;12.03;;
16579;SDS011;8402;51.466;6.806;2023-04-16T03:43:40;30.07;;;11.43;;
16579;SDS011;8402;51.466;6.806;2023-04-16T03:46:10;25.57;;;11.67;;
16579;SDS011;8402;51.466;6.806;2023-04-16T03:48:41;32.77;;;12.17;;
16579;SDS011;8402;51.466;6.806;2023-04-16T03:51:11;31.50;;;12.23;;
16579;SDS011;8402;51.466;6.806;2023-04-16T03:53:44;31.50;;;12.80;;
16579;SDS011;8402;51.466;6.806;2023-04-16T03:56:13;26.10;;;12.10;;
16579;SDS011;8402;51.466;6.806;2023-04-16T03:58:43;30.10;;;12.27;;
16579;SDS011;8402;51.466;6.806;2023-04-16T04:01:13;27.97;;;12.27;;
16579;SDS011;8402;51.466;6.806;2023-04-16T04:03:43;31.00;;;12.57;;
16579;SDS011;8402;51.466;6.806;2023-04-16T04:06:14;37.73;;;13.13;;
16579;SDS011;8402;51.466;6.806;2023-04-16T04:08:50;27.27;;;12.70;;
16579;SDS011;8402;51.466;6.806;2023-04-16T04:11:20;32.47;;;13.77;;
16579;SDS011;8402;51.466;6.806;2023-04-16T04:13:49;32.13;;;12.00;;
16579;SDS011;8402;51.466;6.806;2023-04-16T04:16:20;37.03;;;13.83;;
16579;SDS011;8402;51.466;6.806;2023-04-16T04:18:49;30.97;;;12.63;;
16579;SDS011;8402;51.466;6.806;2023-04-16T04:21:21;32.30;;;13.30;;
16579;SDS011;8402;51.466;6.806;2023-04-16T04:23:54;31.60;;;13.30;;
16579;SDS011;8402;51.466;6.806;2023-04-16T04:26:24;40.27;;;14.37;;
16579;SDS011;8402;51.466;6.806;2023-04-16T04:28:54;33.70;;;14.17;;
16579;SDS011;8402;51.466;6.806;2023-04-16T04:31:24;36.90;;;14.17;;
16579;SDS011;8402;51.466;6.806;2023-04-16T04:33:54;40.67;;;14.50;;
16579;SDS011;8402;51.466;6.806;2023-04-16T04:36:24;38.70;;;14.70;;
16579;SDS011;8402;51.466;6.806;2023-04-16T04:38:56;39.03;;;14.63;;
16579;SDS011;8402;51.466;6.806;2023-04-16T04:41:26;37.77;;;14.13;;
16579;SDS011;8402;51.466;6.806;2023-04-16T04:43:56;41.53;;;15.10;;
16579;SDS011;8402;51.466;6.806;2023-04-16T04:46:26;34.00;;;13.97;;
16579;SDS011;8402;51.466;6.806;2023-04-16T04:48:56;35.97;;;14.47;;
16579;SDS011;8402;51.466;6.806;2023-04-16T04:51:26;38.97;;;15.63;;
16579;SDS011;8402;51.466;6.806;2023-04-16T04:53:59;39.83;;;14.87;;
16579;SDS011;8402;51.466;6.806;2023-04-16T04:56:29;36.20;;;14.67;;
16579;SDS011;8402;51.466;6.806;2023-04-16T04:58:59;35.67;;;15.03;;
16579;SDS011;8402;51.466;6.806;2023-04-16T05:01:32;37.70;;;14.70;;
16579;SDS011;8402;51.466;6.806;2023-04-16T05:04:02;46.10;;;16.70;;
16579;SDS011;8402;51.466;6.806;2023-04-16T05:06:33;40.87;;;15.93;;
16579;SDS011;8402;51.466;6.806;2023-04-16T05:09:08;41.03;;;16.40;;
16579;SDS011;8402;51.466;6.806;2023-04-16T05:11:43;42.40;;;15.97;;
16579;SDS011;8402;51.466;6.806;2023-04-16T05:14:13;43.57;;;15.70;;
16579;SDS011;8402;51.466;6.806;2023-04-16T05:16:43;37.07;;;14.83;;
16579;SDS011;8402;51.466;6.806;2023-04-16T05:19:13;42.60;;;16.47;;
16579;SDS011;8402;51.466;6.806;2023-04-16T05:21:45;40.43;;;15.80;;
16579;SDS011;8402;51.466;6.806;2023-04-16T05:24:18;41.23;;;16.13;;
16579;SDS011;8402;51.466;6.806;2023-04-16T05:26:48;38.80;;;15.67;;
16579;SDS011;8402;51.466;6.806;2023-04-16T05:29:18;40.63;;;16.57;;
16579;SDS011;8402;51.466;6.806;2023-04-16T05:31:48;33.90;;;15.03;;
16579;SDS011;8402;51.466;6.806;2023-04-16T05:34:18;40.33;;;16.07;;
16579;SDS011;8402;51.466;6.806;2023-04-16T05:36:48;41.93;;;15.10;;
16579;SDS011;8402;51.466;6.806;2023-04-16T05:39:21;40.23;;;15.93;;
16579;SDS011;8402;51.466;6.806;2023-04-16T05:41:51;37.13;;;15.40;;
16579;SDS011;8402;51.466;6.806;2023-04-16T05:44:21;36.20;;;14.47;;
16579;SDS011;8402;51.466;6.806;2023-04-16T05:46:51;35.57;;;12.93;;
16579;SDS011;8402;51.466;6.806;2023-04-16T05:49:21;39.20;;;15.23;;
16579;SDS011;8402;51.466;6.806;2023-04-16T05:51:51;43.67;;;16.33;;
16579;SDS011;8402;51.466;6.806;2023-04-16T05:54:23;34.23;;;16.17;;
16579;SDS011;8402;51.466;6.806;2023-04-16T05:56:53;39.90;;;16.73;;
16579;SDS011;8402;51.466;6.806;2023-04-16T05:59:23;38.90;;;15.87;;
16579;SDS011;8402;51.466;6.806;2023-04-16T06:01:53;45.43;;;16.93;;
16579;SDS011;8402;51.466;6.806;2023-04-16T06:04:27;38.63;;;15.07;;
16579;SDS011;8402;51.466;6.806;2023-04-16T06:06:57;40.33;;;14.60;;
16579;SDS011;8402;51.466;6.806;2023-04-16T06:09:29;31.47;;;14.70;;
16579;SDS011;8402;51.466;6.806;2023-04-16T06:11:59;39.17;;;15.70;;
16579;SDS011;8402;51.466;6.806;2023-04-16T06:14:29;35.50;;;14.87;;
16579;SDS011;8402;51.466;6.806;2023-04-16T06:16:59;34.27;;;14.77;;
16579;SDS011;8402;51.466;6.806;2023-04-16T06:19:30;35.13;;;15.20;;
16579;SDS011;8402;51.466;6.806;2023-04-16T06:21:59;33.00;;;14.70;;
16579;SDS011;8402;51.466;6.806;2023-04-16T06:24:34;33.27;;;15.63;;
16579;SDS011;8402;51.466;6.806;2023-04-16T06:27:04;36.90;;;14.93;;
16579;SDS011;8402;51.466;6.806;2023-04-16T06:29:34;38.13;;;15.43;;
16579;SDS011;8402;51.466;6.806;2023-04-16T06:32:07;32.63;;;14.10;;
16579;SDS011;8402;51.466;6.806;2023-04-16T06:34:37;32.33;;;15.00;;
16579;SDS011;8402;51.466;6.806;2023-04-16T06:37:07;38.10;;;15.83;;
16579;SDS011;8402;51.466;6.806;2023-04-16T06:39:40;38.93;;;14.97;;
16579;SDS011;8402;51.466;6.806;2023-04-16T06:42:10;31.47;;;13.43;;
16579;SDS011;8402;51.466;6.806;2023-04-16T06:44:40;36.10;;;15.13;;
16579;SDS011;8402;51.466;6.806;2023-04-16T06:47:10;34.37;;;14.37;;
16579;SDS011;8402;51.466;6.806;2023-04-16T06:49:40;33.50;;;14.87;;
16579;SDS011;8402;51.466;6.806;2023-04-16T06:52:13;31.90;;;14.87;;
16579;SDS011;8402;51.466;6.806;2023-04-16T06:54:46;35.83;;;15.93;;
16579;SDS011;8402;51.466;6.806;2023-04-16T06:57:17;35.40;;;15.87;;
16579;SDS011;8402;51.466;6.806;2023-04-16T06:59:47;35.07;;;15.67;;
16579;SDS011;8402;51.466;6.806;2023-04-16T07:02:17;32.33;;;15.50;;
16579;SDS011;8402;51.466;6.806;2023-04-16T07:04:47;33.10;;;14.97;;
16579;SDS011;8402;51.466;6.806;2023-04-16T07:07:19;30.73;;;15.10;;
16579;SDS011;8402;51.466;6.806;2023-04-16T07:09:52;33.23;;;15.47;;
16579;SDS011;8402;51.466;6.806;2023-04-16T07:12:22;38.77;;;16.23;;
16579;SDS011;8402;51.466;6.806;2023-04-16T07:14:52;37.60;;;15.67;;
16579;SDS011;8402;51.466;6.806;2023-04-16T07:17:23;40.37;;;15.90;;
16579;SDS011;8402;51.466;6.806;2023-04-16T07:19:53;37.10;;;15.57;;
16579;SDS011;8402;51.466;6.806;2023-04-16T07:22:23;32.70;;;14.93;;
16579;SDS011;8402;51.466;6.806;2023-04-16T07:24:55;34.23;;;15.70;;
16579;SDS011;8402;51.466;6.806;2023-04-16T07:27:25;34.53;;;15.47;;
16579;SDS011;8402;51.466;6.806;2023-04-16T07:29:55;42.53;;;16.37;;
16579;SDS011;8402;51.466;6.806;2023-04-16T07:32:26;33.43;;;15.90;;
16579;SDS011;8402;51.466;6.806;2023-04-16T07:34:56;31.20;;;15.77;;
16579;SDS011;8402;51.466;6.806;2023-04-16T07:37:27;33.00;;;16.10;;
16579;SDS011;8402;51.466;6.806;2023-04-16T07:39:59;35.13;;;16.73;;
16579;SDS011;8402;51.466;6.806;2023-04-16T07:42:31;33.13;;;16.53;;
16579;SDS011;8402;51.466;6.806;2023-04-16T07:45:01;34.13;;;16.50;;
16579;SDS011;8402;51.466;6.806;2023-04-16T07:47:31;31.67;;;15.97;;
16579;SDS011;8402;51.466;6.806;2023-04-16T07:50:01;34.73;;;16.17;;
16579;SDS011;8402;51.466;6.806;2023-04-16T07:52:31;33.83;;;16.83;;
16579;SDS011;8402;51.466;6.806;2023-04-16T07:55:07;34.20;;;16.57;;
16579;SDS011;8402;51.466;6.806;2023-04-16T07:57:39;31.53;;;16.07;;
16579;SDS011;8402;51.466;6.806;2023-04-16T08:00:10;35.07;;;17.10;;
16579;SDS011;8402;51.466;6.806;2023-04-16T08:02:41;39.97;;;17.10;;
16579;SDS011;8402;51.466;6.806;2023-04-16T08:05:12;36.87;;;16.47;;
16579;SDS011;8402;51.466;6.806;2023-04-16T08:07:45;38.60;;;16.10;;
16579;SDS011;8402;51.466;6.806;2023-04-16T08:10:17;31.00;;;16.37;;
16579;SDS011;8402;51.466;6.806;2023-04-16T08:12:47;37.70;;;14.63;;
16579;SDS011;8402;51.466;6.806;2023-04-16T08:15:26;34.03;;;14.40;;
16579;SDS011;8402;51.466;6.806;2023-04-16T08:17:56;33.27;;;15.33;;
16579;SDS011;8402;51.466;6.806;2023-04-16T08:20:26;30.40;;;15.13;;
16579;SDS011;8402;51.466;6.806;2023-04-16T08:22:57;29.37;;;15.47;;
16579;SDS011;8402;51.466;6.806;2023-04-16T08:25:29;33.50;;;16.10;;
16579;SDS011;8402;51.466;6.806;2023-04-16T08:27:59;32.67;;;15.60;;
16579;SDS011;8402;51.466;6.806;2023-04-16T08:30:29;30.83;;;15.60;;
16579;SDS011;8402;51.466;6.806;2023-04-16T08:32:59;33.07;;;15.57;;
16579;SDS011;8402;51.466;6.806;2023-04-16T08:35:42;29.87;;;15.43;;
16579;SDS011;8402;51.466;6.806;2023-04-16T08:38:12;33.13;;;16.63;;
16579;SDS011;8402;51.466;6.806;2023-04-16T08:40:44;27.93;;;15.47;;
16579;SDS011;8402;51.466;6.806;2023-04-16T08:43:16;35.00;;;15.53;;
16579;SDS011;8402;51.466;6.806;2023-04-16T08:45:54;29.43;;;16.00;;
16579;SDS011;8402;51.466;6.806;2023-04-16T08:48:32;36.47;;;16.70;;
16579;SDS011;8402;51.466;6.806;2023-04-16T08:51:03;26.20;;;14.23;;
16579;SDS011;8402;51.466;6.806;2023-04-16T08:53:42;28.20;;;15.63;;
16579;SDS011;8402;51.466;6.806;2023-04-16T08:56:20;29.13;;;15.40;;
16579;SDS011;8402;51.466;6.806;2023-04-16T08:58:52;40.37;;;16.00;;
16579;SDS011;8402;51.466;6.806;2023-04-16T09:01:24;29.47;;;14.53;;
16579;SDS011;8402;51.466;6.806;2023-04-16T09:03:55;31.53;;;15.17;;
16579;SDS011;8402;51.466;6.806;2023-04-16T09:06:27;29.47;;;15.33;;
16579;SDS011;8402;51.466;6.806;2023-04-16T09:08:57;29.47;;;15.23;;
16579;SDS011;8402;51.466;6.806;2023-04-16T09:11:33;30.60;;;15.50;;
16579;SDS011;8402;51.466;6.806;2023-04-16T09:14:03;32.53;;;15.63;;
16579;SDS011;8402;51.466;6.806;2023-04-16T09:16:37;28.37;;;15.00;;
16579;SDS011;8402;51.466;6.806;2023-04-16T09:19:09;31.10;;;15.63;;
16579;SDS011;8402;51.466;6.806;2023-04-16T09:21:39;26.83;;;14.37;;
16579;SDS011;8402;51.466;6.806;2023-04-16T09:24:10;26.80;;;14.63;;
16579;SDS011;8402;51.466;6.806;2023-04-16T09:26:42;27.63;;;14.23;;
16579;SDS011;8402;51.466;6.806;2023-04-16T09:29:16;30.07;;;15.03;;
16579;SDS011;8402;51.466;6.806;2023-04-16T09:32:02;29.77;;;15.07;;
16579;SDS011;8402;51.466;6.806;2023-04-16T09:34:33;26.07;;;14.27;;
16579;SDS011;8402;51.466;6.806;2023-04-16T09:37:22;22.73;;;13.80;;
16579;SDS011;8402;51.466;6.806;2023-04-16T09:39:54;26.00;;;13.90;;
16579;SDS011;8402;51.466;6.806;2023-04-16T09:42:29;21.73;;;12.90;;
16579;SDS011;8402;51.466;6.806;2023-04-16T09:45:00;24.90;;;13.60;;
16579;SDS011;8402;51.466;6.806;2023-04-16T09:47:38;24.53;;;13.53;;
16579;SDS011;8402;51.466;6.806;2023-04-16T09:50:13;23.53;;;13.27;;
16579;SDS011;8402;51.466;6.806;2023-04-16T09:52:46;27.30;;;14.10;;
16579;SDS011;8402;51.466;6.806;2023-04-16T09:55:21;22.17;;;12.37;;
16579;SDS011;8402;51.466;6.806;2023-04-16T09:58:00;21.27;;;13.07;;
16579;SDS011;8402;51.466;6.806;2023-04-16T10:00:30;24.40;;;12.60;;
16579;SDS011;8402;51.466;6.806;2023-04-16T10:03:08;23.03;;;12.87;;
16579;SDS011;8402;51.466;6.806;2023-04-16T10:05:38;25.73;;;13.00;;
16579;SDS011;8402;51.466;6.806;2023-04-16T10:08:12;26.47;;;13.43;;
16579;SDS011;8402;51.466;6.806;2023-04-16T10:10:44;26.70;;;13.93;;
16579;SDS011;8402;51.466;6.806;2023-04-16T10:13:17;23.43;;;12.77;;
16579;SDS011;8402;51.466;6.806;2023-04-16T10:15:47;21.70;;;13.37;;
16579;SDS011;8402;51.466;6.806;2023-04-16T10:18:18;23.60;;;13.50;;
16579;SDS011;8402;51.466;6.806;2023-04-16T10:20:49;20.43;;;12.93;;
16579;SDS011;8402;51.466;6.806;2023-04-16T10:23:20;27.30;;;14.03;;
16579;SDS011;8402;51.466;6.806;2023-04-16T10:25:51;25.87;;;14.13;;
16579;SDS011;8402;51.466;6.806;2023-04-16T10:28:26;24.10;;;13.90;;
16579;SDS011;8402;51.466;6.806;2023-04-16T10:30:57;24.10;;;13.10;;
16579;SDS011;8402;51.466;6.806;2023-04-16T10:33:29;25.43;;;12.77;;
16579;SDS011;8402;51.466;6.806;2023-04-16T10:36:06;22.43;;;13.83;;
16579;SDS011;8402;51.466;6.806;2023-04-16T10:38:38;23.03;;;13.17;;
16579;SDS011;8402;51.466;6.806;2023-04-16T10:41:12;21.57;;;12.50;;
16579;SDS011;8402;51.466;6.806;2023-04-16T10:43:45;23.37;;;12.87;;
16579;SDS011;8402;51.466;6.806;2023-04-16T10:46:17;22.03;;;12.30;;
16579;SDS011;8402;51.466;6.806;2023-04-16T10:48:52;22.67;;;12.17;;
16579;SDS011;8402;51.466;6.806;2023-04-16T10:51:24;23.23;;;13.07;;
16579;SDS011;8402;51.466;6.806;2023-04-16T10:53:58;19.00;;;12.37;;
16579;SDS011;8402;51.466;6.806;2023-04-16T10:56:32;20.20;;;12.63;;
16579;SDS011;8402;51.466;6.806;2023-04-16T10:59:06;20.73;;;12.40;;
16579;SDS011;8402;51.466;6.806;2023-04-16T11:01:40;20.50;;;12.23;;
16579;SDS011;8402;51.466;6.806;2023-04-16T11:07:01;22.53;;;11.97;;
16579;SDS011;8402;51.466;6.806;2023-04-16T11:09:42;17.43;;;11.00;;
16579;SDS011;8402;51.466;6.806;2023-04-16T11:12:15;16.50;;;10.50;;
16579;SDS011;8402;51.466;6.806;2023-04-16T11:14:49;18.93;;;10.33;;
16579;SDS011;8402;51.466;6.806;2023-04-16T11:17:20;16.73;;;10.67;;
16579;SDS011;8402;51.466;6.806;2023-04-16T11:19:51;18.80;;;10.77;;
16579;SDS011;8402;51.466;6.806;2023-04-16T11:22:21;17.13;;;10.47;;
16579;SDS011;8402;51.466;6.806;2023-04-16T11:24:54;17.70;;;11.10;;
16579;SDS011;8402;51.466;6.806;2023-04-16T11:27:25;18.87;;;11.43;;
16579;SDS011;8402;51.466;6.806;2023-04-16T11:29:59;18.37;;;11.40;;
16579;SDS011;8402;51.466;6.806;2023-04-16T11:32:30;18.20;;;10.80;;
16579;SDS011;8402;51.466;6.806;2023-04-16T11:35:02;15.50;;;10.40;;
16579;SDS011;8402;51.466;6.806;2023-04-16T11:37:34;17.10;;;10.80;;
16579;SDS011;8402;51.466;6.806;2023-04-16T11:40:05;18.80;;;10.73;;
16579;SDS011;8402;51.466;6.806;2023-04-16T11:42:37;19.67;;;10.87;;
16579;SDS011;8402;51.466;6.806;2023-04-16T11:45:12;17.73;;;11.27;;
16579;SDS011;8402;51.466;6.806;2023-04-16T11:47:45;17.50;;;11.27;;
16579;SDS011;8402;51.466;6.806;2023-04-16T11:50:18;17.23;;;10.90;;
16579;SDS011;8402;51.466;6.806;2023-04-16T11:52:49;16.57;;;10.83;;
16579;SDS011;8402;51.466;6.806;2023-04-16T11:55:20;18.93;;;11.23;;
16579;SDS011;8402;51.466;6.806;2023-04-16T11:57:51;21.30;;;12.37;;
16579;SDS011;8402;51.466;6.806;2023-04-16T12:00:24;16.53;;;10.53;;
16579;SDS011;8402;51.466;6.806;2023-04-16T12:03:02;16.23;;;10.50;;
16579;SDS011;8402;51.466;6.806;2023-04-16T12:05:34;17.53;;;11.20;;
16579;SDS011;8402;51.466;6.806;2023-04-16T12:08:06;16.40;;;10.33;;
16579;SDS011;8402;51.466;6.806;2023-04-16T12:10:39;18.70;;;10.90;;
16579;SDS011;8402;51.466;6.806;2023-04-16T12:13:22;16.30;;;9.63;;
16579;SDS011;8402;51.466;6.806;2023-04-16T12:15:55;15.93;;;10.70;;
16579;SDS011;8402;51.466;6.806;2023-04-16T12:18:27;16.03;;;11.20;;
16579;SDS011;8402;51.466;6.806;2023-04-16T12:20:57;15.97;;;10.63;;
16579;SDS011;8402;51.466;6.806;2023-04-16T12:23:31;19.07;;;11.20;;
16579;SDS011;8402;51.466;6.806;2023-04-16T12:26:05;19.27;;;11.47;;
16579;SDS011;8402;51.466;6.806;2023-04-16T12:28:37;18.47;;;11.53;;
16579;SDS011;8402;51.466;6.806;2023-04-16T12:31:10;17.50;;;11.03;;
16579;SDS011;8402;51.466;6.806;2023-04-16T12:33:41;16.23;;;10.93;;
16579;SDS011;8402;51.466;6.806;2023-04-16T12:36:17;18.90;;;11.50;;
16579;SDS011;8402;51.466;6.806;2023-04-16T12:38:48;18.40;;;11.60;;
16579;SDS011;8402;51.466;6.806;2023-04-16T12:41:18;21.00;;;11.77;;
16579;SDS011;8402;51.466;6.806;2023-04-16T12:43:48;18.70;;;11.53;;
16579;SDS011;8402;51.466;6.806;2023-04-16T12:46:21;18.20;;;11.53;;
16579;SDS011;8402;51.466;6.806;2023-04-16T12:48:51;21.37;;;12.57;;
16579;SDS011;8402;51.466;6.806;2023-04-16T12:51:23;19.57;;;12.30;;
16579;SDS011;8402;51.466;6.806;2023-04-16T12:53:53;19.80;;;11.53;;
16579;SDS011;8402;51.466;6.806;2023-04-16T12:56:23;22.00;;;12.50;;
16579;SDS011;8402;51.466;6.806;2023-04-16T12:58:53;21.10;;;12.87;;
16579;SDS011;8402;51.466;6.806;2023-04-16T13:01:26;22.40;;;12.67;;
16579;SDS011;8402;51.466;6.806;2023-04-16T13:03:56;20.93;;;12.47;;
16579;SDS011;8402;51.466;6.806;2023-04-16T13:06:26;19.77;;;12.27;;
16579;SDS011;8402;51.466;6.806;2023-04-16T13:08:56;22.47;;;11.93;;
16579;SDS011;8402;51.466;6.806;2023-04-16T13:11:27;22.80;;;12.80;;
16579;SDS011;8402;51.466;6.806;2023-04-16T13:13:57;20.57;;;13.17;;
16579;SDS011;8402;51.466;6.806;2023-04-16T13:16:30;21.10;;;13.40;;
16579;SDS011;8402;51.466;6.806;2023-04-16T13:19:00;25.60;;;12.97;;
16579;SDS011;8402;51.466;6.806;2023-04-16T13:21:30;22.57;;;13.47;;
16579;SDS011;8402;51.466;6.806;2023-04-16T13:24:00;21.50;;;12.90;;
16579;SDS011;8402;51.466;6.806;2023-04-16T13:26:30;21.40;;;13.10;;
16579;SDS011;8402;51.466;6.806;2023-04-16T13:29:00;20.60;;;13.13;;
16579;SDS011;8402;51.466;6.806;2023-04-16T13:31:33;20.93;;;13.47;;
16579;SDS011;8402;51.466;6.806;2023-04-16T13:34:03;21.10;;;12.93;;
16579;SDS011;8402;51.466;6.806;2023-04-16T13:36:33;24.63;;;14.23;;
16579;SDS011;8402;51.466;6.806;2023-04-16T13:39:03;21.10;;;12.77;;
16579;SDS011;8402;51.466;6.806;2023-04-16T13:41:37;22.00;;;13.20;;
16579;SDS011;8402;51.466;6.806;2023-04-16T13:44:10;20.77;;;13.03;;
16579;SDS011;8402;51.466;6.806;2023-04-16T13:46:43;21.47;;;12.47;;
16579;SDS011;8402;51.466;6.806;2023-04-16T13:49:15;19.73;;;12.90;;
16579;SDS011;8402;51.466;6.806;2023-04-16T13:51:45;20.37;;;12.73;;
16579;SDS011;8402;51.466;6.806;2023-04-16T13:54:15;17.07;;;12.07;;
16579;SDS011;8402;51.466;6.806;2023-04-16T13:56:45;21.63;;;12.13;;
16579;SDS011;8402;51.466;6.806;2023-04-16T13:59:18;22.37;;;12.30;;
16579;SDS011;8402;51.466;6.806;2023-04-16T14:01:51;17.37;;;12.10;;
16579;SDS011;8402;51.466;6.806;2023-04-16T14:04:21;19.07;;;12.03;;
16579;SDS011;8402;51.466;6.806;2023-04-16T14:06:51;19.20;;;12.03;;
16579;SDS011;8402;51.466;6.806;2023-04-16T14:09:21;17.27;;;11.83;;
16579;SDS011;8402;51.466;6.806;2023-04-16T14:11:51;21.20;;;12.37;;
16579;SDS011;8402;51.466;6.806;2023-04-16T14:14:21;17.67;;;11.53;;
16579;SDS011;8402;51.466;6.806;2023-04-16T14:16:56;21.40;;;12.67;;
16579;SDS011;8402;51.466;6.806;2023-04-16T14:19:26;19.20;;;12.17;;
16579;SDS011;8402;51.466;6.806;2023-04-16T14:21:56;17.87;;;11.37;;
16579;SDS011;8402;51.466;6.806;2023-04-16T14:24:26;16.23;;;11.20;;
16579;SDS011;8402;51.466;6.806;2023-04-16T14:26:56;19.17;;;11.90;;
16579;SDS011;8402;51.466;6.806;2023-04-16T14:29:26;15.53;;;10.87;;
16579;SDS011;8402;51.466;6.806;2023-04-16T14:31:59;17.40;;;11.00;;
16579;SDS011;8402;51.466;6.806;2023-04-16T14:34:29;23.10;;;11.33;;
16579;SDS011;8402;51.466;6.806;2023-04-16T14:36:59;18.97;;;12.10;;
16579;SDS011;8402;51.466;6.806;2023-04-16T14:39:29;19.90;;;11.37;;
16579;SDS011;8402;51.466;6.806;2023-04-16T14:41:59;17.97;;;11.17;;
16579;SDS011;8402;51.466;6.806;2023-04-16T14:44:29;20.10;;;11.97;;
16579;SDS011;8402;51.466;6.806;2023-04-16T14:47:02;16.50;;;10.43;;
16579;SDS011;8402;51.466;6.806;2023-04-16T14:49:33;17.33;;;10.47;;
16579;SDS011;8402;51.466;6.806;2023-04-16T14:52:04;16.13;;;10.33;;
16579;SDS011;8402;51.466;6.806;2023-04-16T14:54:34;17.47;;;10.57;;
16579;SDS011;8402;51.466;6.806;2023-04-16T14:57:04;19.33;;;10.93;;
16579;SDS011;8402;51.466;6.806;2023-04-16T14:59:34;16.90;;;10.27;;
16579;SDS011;8402;51.466;6.806;2023-04-16T15:02:07;16.20;;;10.37;;
16579;SDS011;8402;51.466;6.806;2023-04-16T15:04:38;16.67;;;9.97;;
16579;SDS011;8402;51.466;6.806;2023-04-16T15:07:08;15.90;;;10.60;;